Time;durP1;ratioP1;P1;durP2;ratioP2;P2;SDS_P1;SDS_P2;PMS_P1;PMS_P2;Temp;Humidity;BMP_temperature;BMP_pressure;BME280_temperature;BME280_humidity;BME280_pressure;Samples;Min_cycle;Max_cycle;Signal;HPM_P1;HPM_P2
2021/09/16 00:00:41;;;;;;;3.43;3.13;;;;;23.30;100334.00;;;;2063506;28;20215;-57
2021/09/16 00:01:42;;;;;;;4.30;3.90;;;;;23.30;100331.00;;;;2063495;28;20894;-57
2021/09/16 00:02:42;;;;;;;3.73;3.43;;;;;23.30;100337.00;;;;2063351;28;20700;-57
2021/09/16 00:03:42;;;;;;;3.53;3.17;;;;;23.30;100333.00;;;;2063382;28;20556;-54
2021/09/16 00:04:43;;;;;;;4.00;3.30;;;;;23.30;100324.00;;;;2063668;28;20219;-55
2021/09/16 00:05:43;;;;;;;4.90;2.97;;;;;23.30;100326.00;;;;2063588;28;20218;-57
2021/09/16 00:06:44;;;;;;;4.23;3.37;;;;;23.30;100335.00;;;;2063376;28;20218;-57
2021/09/16 00:07:45;;;;;;;3.50;3.07;;;;;23.30;100337.00;;;;2063063;28;20223;-57
2021/09/16 00:08:45;;;;;;;3.25;2.80;;;;;23.30;100340.00;;;;2062662;28;20234;-56
2021/09/16 00:09:45;;;;;;;3.60;3.00;;;;;23.30;100335.00;;;;2062367;28;20219;-57
2021/09/16 00:10:46;;;;;;;3.90;2.83;;;;;23.30;100338.00;;;;2062844;28;20226;-56
2021/09/16 00:11:46;;;;;;;3.50;3.00;;;;;23.30;100341.00;;;;2062098;28;20238;-57
2021/09/16 00:12:47;;;;;;;4.40;3.37;;;;;23.30;100343.00;;;;2061928;28;20695;-53
2021/09/16 00:13:47;;;;;;;4.50;3.00;;;;;23.30;100348.00;;;;2062600;28;20391;-55
2021/09/16 00:14:47;;;;;;;2.97;2.60;;;;;23.30;100349.00;;;;2063020;28;20227;-55
2021/09/16 00:15:48;;;;;;;4.63;3.30;;;;;23.30;100347.00;;;;2062666;28;20900;-56
2021/09/16 00:16:48;;;;;;;4.53;2.67;;;;;23.30;100345.00;;;;2062722;28;20222;-54
2021/09/16 00:17:49;;;;;;;2.60;2.40;;;;;23.30;100346.00;;;;2063323;28;20246;-53
2021/09/16 00:18:49;;;;;;;3.10;2.63;;;;;23.30;100340.00;;;;2062231;28;20219;-54
2021/09/16 00:19:49;;;;;;;4.60;3.13;;;;;23.20;100349.00;;;;2063193;28;20223;-54
2021/09/16 00:20:51;;;;;;;6.97;3.27;;;;;23.20;100340.00;;;;2063313;28;20222;-54
2021/09/16 00:21:51;;;;;;;4.18;2.90;;;;;23.20;100341.00;;;;2067839;28;20211;-56
2021/09/16 00:22:52;;;;;;;2.87;2.57;;;;;23.20;100354.00;;;;2061981;28;20313;-57
2021/09/16 00:23:52;;;;;;;3.43;2.70;;;;;23.30;100349.00;;;;2076770;28;20224;-58
2021/09/16 00:24:52;;;;;;;2.90;2.50;;;;;23.30;100352.00;;;;2071250;28;20222;-52
2021/09/16 00:25:53;;;;;;;2.43;2.20;;;;;23.30;100350.00;;;;2071440;28;20218;-55
2021/09/16 00:26:53;;;;;;;2.80;2.43;;;;;23.30;100344.00;;;;2071453;28;20574;-56
2021/09/16 00:27:53;;;;;;;2.23;2.03;;;;;23.30;100351.00;;;;2064174;28;20296;-60
2021/09/16 00:28:54;;;;;;;2.73;2.30;;;;;23.20;100347.00;;;;2077596;28;20213;-60
2021/09/16 00:29:54;;;;;;;2.93;2.17;;;;;23.20;100353.00;;;;2074825;28;20331;-60
2021/09/16 00:30:54;;;;;;;2.63;2.00;;;;;23.30;100356.00;;;;2071379;28;20738;-58
2021/09/16 00:31:55;;;;;;;2.90;2.50;;;;;23.30;100354.00;;;;2071085;28;20326;-59
2021/09/16 00:32:55;;;;;;;3.50;2.20;;;;;23.30;100351.00;;;;2071306;28;20302;-58
2021/09/16 00:33:55;;;;;;;3.13;2.70;;;;;23.30;100357.00;;;;2069830;28;20682;-59
2021/09/16 00:34:56;;;;;;;2.43;2.13;;;;;23.30;100348.00;;;;2071369;28;20229;-55
2021/09/16 00:35:56;;;;;;;3.20;2.30;;;;;23.30;100354.00;;;;2071149;28;20222;-57
2021/09/16 00:36:56;;;;;;;2.13;1.93;;;;;23.30;100348.00;;;;2070999;28;20210;-57
2021/09/16 00:37:57;;;;;;;2.90;2.00;;;;;23.30;100345.00;;;;2071248;28;20230;-57
2021/09/16 00:38:57;;;;;;;3.23;2.37;;;;;23.30;100349.00;;;;2069114;28;20841;-57
2021/09/16 00:39:58;;;;;;;2.07;1.83;;;;;23.20;100346.00;;;;2070330;28;20214;-53
2021/09/16 00:40:59;;;;;;;2.87;2.10;;;;;23.20;100351.00;;;;2070566;28;20224;-54
2021/09/16 00:41:59;;;;;;;2.70;2.30;;;;;23.20;100358.00;;;;2071172;28;20210;-56
2021/09/16 00:42:59;;;;;;;2.57;2.00;;;;;23.30;100359.00;;;;2070927;28;20993;-57
2021/09/16 00:44:00;;;;;;;2.47;1.93;;;;;23.30;100310.00;;;;2070956;28;20343;-55
2021/09/16 00:45:00;;;;;;;2.03;1.77;;;;;23.30;100350.00;;;;2071317;28;20222;-55
2021/09/16 00:46:04;;;;;;;2.10;1.90;;;;;23.20;100356.00;;;;2065282;28;20730;-56
2021/09/16 00:47:05;;;;;;;2.13;1.73;;;;;23.30;100347.00;;;;2078493;28;20213;-58
2021/09/16 00:48:05;;;;;;;2.37;2.00;;;;;23.20;100347.00;;;;2074035;28;20206;-56
2021/09/16 00:49:06;;;;;;;2.30;1.80;;;;;23.20;100354.00;;;;2069834;28;20218;-58
2021/09/16 00:50:08;;;;;;;2.95;1.92;;;;;23.20;100361.00;;;;2070958;28;20217;-54
2021/09/16 00:51:08;;;;;;;3.00;1.98;;;;;23.20;100353.00;;;;2069102;28;20765;-54
2021/09/16 00:52:09;;;;;;;2.20;1.67;;;;;23.20;100345.00;;;;2065217;28;20214;-53
2021/09/16 00:53:10;;;;;;;2.00;1.77;;;;;23.30;100356.00;;;;2062443;28;20210;-56
2021/09/16 00:54:10;;;;;;;2.70;1.73;;;;;23.20;100347.00;;;;2062217;28;20737;-53
2021/09/16 00:55:11;;;;;;;2.77;1.87;;;;;23.20;100359.00;;;;2062302;28;20207;-56
2021/09/16 00:56:11;;;;;;;2.70;2.10;;;;;23.20;100356.00;;;;2062378;28;20223;-57
2021/09/16 00:57:13;;;;;;;2.97;1.97;;;;;23.20;100357.00;;;;2062959;28;20214;-58
2021/09/16 00:58:13;;;;;;;2.42;1.98;;;;;23.20;100350.00;;;;2062095;28;20211;-57
2021/09/16 00:59:14;;;;;;;2.40;1.93;;;;;23.20;100356.00;;;;2052562;28;20216;-57
2021/09/16 01:00:15;;;;;;;2.40;1.60;;;;;23.20;100357.00;;;;2061700;28;20207;-55
2021/09/16 01:01:16;;;;;;;1.80;1.60;;;;;23.20;100354.00;;;;2062771;28;20243;-56
2021/09/16 01:02:17;;;;;;;1.98;1.80;;;;;23.20;100357.00;;;;2062278;28;20844;-55
2021/09/16 01:03:17;;;;;;;1.73;1.63;;;;;23.30;100352.00;;;;2062383;28;20221;-55
2021/09/16 01:04:18;;;;;;;3.03;1.90;;;;;23.20;100344.00;;;;2062395;28;20234;-55
2021/09/16 01:05:18;;;;;;;2.37;1.87;;;;;23.20;100354.00;;;;2062514;28;20723;-57
2021/09/16 01:06:18;;;;;;;2.20;1.70;;;;;23.20;100354.00;;;;2061519;28;20598;-53
2021/09/16 01:07:19;;;;;;;2.20;1.47;;;;;23.20;100348.00;;;;2062977;28;20230;-52
2021/09/16 01:08:19;;;;;;;3.07;1.90;;;;;23.20;100350.00;;;;2054417;28;20732;-56
2021/09/16 01:09:19;;;;;;;1.70;1.53;;;;;23.20;100349.00;;;;2053224;28;20228;-57
2021/09/16 01:10:21;;;;;;;1.87;1.60;;;;;23.20;100344.00;;;;2062798;28;20301;-55
2021/09/16 01:11:21;;;;;;;2.10;1.52;;;;;23.20;100352.00;;;;2062855;28;20218;-54
2021/09/16 01:12:22;;;;;;;1.70;1.50;;;;;23.20;100345.00;;;;2062603;28;20298;-56
2021/09/16 01:13:22;;;;;;;1.60;1.50;;;;;23.20;100356.00;;;;2062773;28;20529;-57
2021/09/16 01:14:26;;;;;;;2.03;1.60;;;;;23.20;100344.00;;;;2062991;28;20215;-56
2021/09/16 01:15:27;;;;;;;1.67;1.55;;;;;23.20;100344.00;;;;2062751;28;20219;-56
2021/09/16 01:16:27;;;;;;;2.90;1.73;;;;;23.20;100350.00;;;;2059646;28;20215;-55
2021/09/16 01:17:27;;;;;;;1.70;1.60;;;;;23.20;100347.00;;;;2059445;28;20218;-54
2021/09/16 01:18:28;;;;;;;5.87;1.80;;;;;23.20;100342.00;;;;2061994;28;20599;-55
2021/09/16 01:19:28;;;;;;;2.13;1.93;;;;;23.20;100344.00;;;;2061000;28;20223;-56
2021/09/16 01:20:28;;;;;;;1.70;1.60;;;;;23.20;100339.00;;;;2062522;28;20215;-55
2021/09/16 01:21:29;;;;;;;2.60;1.90;;;;;23.20;100344.00;;;;2067865;28;20217;-57
2021/09/16 01:22:31;;;;;;;45.43;3.40;;;;;23.20;100341.00;;;;2062544;28;20223;-55
2021/09/16 01:23:32;;;;;;;2.20;1.50;;;;;23.20;100346.00;;;;2062026;28;20305;-60
2021/09/16 01:24:32;;;;;;;2.00;1.50;;;;;23.20;100339.00;;;;2060328;28;20322;-60
2021/09/16 01:25:33;;;;;;;1.93;1.67;;;;;23.20;100343.00;;;;2062139;28;20215;-56
2021/09/16 01:26:33;;;;;;;2.60;1.60;;;;;23.20;100354.00;;;;2062708;28;20619;-58
2021/09/16 01:27:33;;;;;;;1.83;1.50;;;;;23.20;100350.00;;;;2062811;28;20225;-53
2021/09/16 01:28:34;;;;;;;1.70;1.60;;;;;23.20;100347.00;;;;2063800;28;20775;-56
2021/09/16 01:29:34;;;;;;;1.60;1.40;;;;;23.10;100356.00;;;;2069660;28;20238;-57
2021/09/16 01:30:34;;;;;;;2.30;1.80;;;;;23.10;100351.00;;;;2070588;28;20206;-57
2021/09/16 01:31:40;;;;;;;1.70;1.60;;;;;23.10;100352.00;;;;2070779;28;20916;-57
2021/09/16 01:32:40;;;;;;;2.13;1.40;;;;;23.10;100357.00;;;;2070261;28;20301;-55
2021/09/16 01:33:40;;;;;;;2.40;1.67;;;;;23.20;100354.00;;;;2070350;28;20214;-55
2021/09/16 01:34:41;;;;;;;1.87;1.70;;;;;23.10;100354.00;;;;2070283;28;20198;-57
2021/09/16 01:35:41;;;;;;;2.07;1.60;;;;;23.10;100354.00;;;;2070611;28;20226;-57
2021/09/16 01:36:42;;;;;;;2.13;1.80;;;;;23.10;100350.00;;;;2070580;28;20214;-55
2021/09/16 01:37:43;;;;;;;2.00;1.67;;;;;23.20;100356.00;;;;2070935;28;20210;-56
2021/09/16 01:38:43;;;;;;;1.47;1.20;;;;;23.10;100356.00;;;;2069884;28;20286;-56
2021/09/16 01:39:43;;;;;;;1.73;1.63;;;;;23.10;100355.00;;;;2070502;28;20229;-57
2021/09/16 01:40:44;;;;;;;1.70;1.37;;;;;23.10;100363.00;;;;2070857;28;20218;-54
2021/09/16 01:41:44;;;;;;;2.17;1.70;;;;;23.20;100364.00;;;;2070739;28;20218;-56
2021/09/16 01:42:45;;;;;;;3.63;1.47;;;;;23.10;100362.00;;;;2070841;28;20210;-57
2021/09/16 01:43:46;;;;;;;1.50;1.40;;;;;23.10;100362.00;;;;2070345;28;20563;-57
2021/09/16 01:44:47;;;;;;;1.90;1.57;;;;;23.10;100362.00;;;;2070755;28;20547;-55
2021/09/16 01:45:47;;;;;;;1.58;1.48;;;;;23.10;100359.00;;;;2071013;28;20241;-55
2021/09/16 01:46:47;;;;;;;1.40;1.27;;;;;23.10;100362.00;;;;2070962;28;20224;-55
2021/09/16 01:47:48;;;;;;;1.43;1.30;;;;;23.10;100359.00;;;;2070878;28;20218;-56
2021/09/16 01:48:48;;;;;;;1.80;1.67;;;;;23.10;100358.00;;;;2069602;28;20225;-53
2021/09/16 01:49:49;;;;;;;1.67;1.43;;;;;23.10;100359.00;;;;2070537;28;20713;-56
2021/09/16 01:50:49;;;;;;;1.47;1.20;;;;;23.10;100354.00;;;;2069080;28;20222;-54
2021/09/16 01:51:49;;;;;;;3.23;1.43;;;;;23.10;100356.00;;;;2067536;28;20242;-55
2021/09/16 01:52:50;;;;;;;1.43;1.33;;;;;23.10;100353.00;;;;2062735;28;20605;-57
2021/09/16 01:53:50;;;;;;;6.23;1.50;;;;;23.10;100351.00;;;;2062604;28;20203;-57
2021/09/16 01:54:52;;;;;;;1.47;1.37;;;;;23.10;100359.00;;;;2062635;28;20218;-57
2021/09/16 01:55:53;;;;;;;1.38;1.20;;;;;23.10;100365.00;;;;2062819;28;20223;-56
2021/09/16 01:56:53;;;;;;;2.27;1.50;;;;;23.10;100359.00;;;;2062746;28;20650;-55
2021/09/16 01:57:53;;;;;;;1.73;1.50;;;;;23.10;100362.00;;;;2062807;28;20218;-56
2021/09/16 01:58:54;;;;;;;1.83;1.30;;;;;23.10;100370.00;;;;2061155;28;20273;-56
2021/09/16 01:59:54;;;;;;;1.43;1.33;;;;;23.10;100366.00;;;;2062174;28;20226;-57
2021/09/16 02:00:55;;;;;;;2.10;1.30;;;;;23.10;100370.00;;;;2062593;28;20219;-54
2021/09/16 02:01:55;;;;;;;1.40;1.30;;;;;23.10;100373.00;;;;2062691;28;20289;-55
2021/09/16 02:02:56;;;;;;;1.70;1.33;;;;;23.10;100373.00;;;;2062710;28;20210;-56
2021/09/16 02:03:57;;;;;;;1.60;1.50;;;;;23.10;100376.00;;;;2061730;28;20265;-57
2021/09/16 02:04:57;;;;;;;1.60;1.33;;;;;23.10;100371.00;;;;2061978;28;20265;-56
2021/09/16 02:05:57;;;;;;;1.87;1.37;;;;;23.10;100372.00;;;;2062623;28;20214;-57
2021/09/16 02:06:58;;;;;;;2.97;1.20;;;;;23.10;100376.00;;;;2062231;28;20229;-56
2021/09/16 02:07:58;;;;;;;1.20;1.10;;;;;23.10;100372.00;;;;2062677;28;20256;-56
2021/09/16 02:08:58;;;;;;;1.10;1.00;;;;;23.10;100382.00;;;;2061494;28;20226;-56
2021/09/16 02:09:59;;;;;;;1.53;1.23;;;;;23.10;100383.00;;;;2062206;28;20598;-55
2021/09/16 02:10:59;;;;;;;1.27;1.13;;;;;23.10;100379.00;;;;2062321;28;20234;-54
2021/09/16 02:11:59;;;;;;;2.13;1.33;;;;;23.10;100388.00;;;;2062153;28;20672;-56
2021/09/16 02:13:00;;;;;;;1.80;1.60;;;;;23.10;100387.00;;;;2062529;28;20214;-57
2021/09/16 02:14:00;;;;;;;2.23;1.30;;;;;23.10;100388.00;;;;2062242;28;20227;-57
2021/09/16 02:15:00;;;;;;;2.10;1.27;;;;;23.10;100387.00;;;;2062710;28;20695;-56
2021/09/16 02:16:01;;;;;;;1.30;1.20;;;;;23.10;100387.00;;;;2062370;28;20218;-55
2021/09/16 02:17:02;;;;;;;1.60;1.23;;;;;23.10;100387.00;;;;2062673;28;20215;-55
2021/09/16 02:18:02;;;;;;;1.33;1.23;;;;;23.10;100377.00;;;;2062126;28;20453;-56
2021/09/16 02:19:04;;;;;;;1.50;1.27;;;;;23.10;100381.00;;;;2060813;28;20211;-57
2021/09/16 02:20:05;;;;;;;1.88;1.30;;;;;23.10;100386.00;;;;2062029;28;20215;-57
2021/09/16 02:21:06;;;;;;;1.90;1.38;;;;;23.10;100392.00;;;;2064796;28;20241;-57
2021/09/16 02:22:06;;;;;;;1.33;1.20;;;;;23.10;100392.00;;;;2064544;28;20853;-57
2021/09/16 02:23:07;;;;;;;2.10;1.20;;;;;23.10;100389.00;;;;2061218;28;20297;-57
2021/09/16 02:24:07;;;;;;;2.63;1.33;;;;;23.10;100392.00;;;;2061841;28;20215;-53
2021/09/16 02:25:08;;;;;;;2.93;1.33;;;;;23.00;100389.00;;;;2062232;28;20209;-55
2021/09/16 02:26:08;;;;;;;1.60;1.10;;;;;23.00;100393.00;;;;2061994;28;20218;-54
2021/09/16 02:27:08;;;;;;;3.37;1.60;;;;;23.00;100384.00;;;;2061994;28;20214;-53
2021/09/16 02:28:09;;;;;;;8.10;1.10;;;;;23.00;100386.00;;;;2061962;28;20218;-55
2021/09/16 02:29:09;;;;;;;2.53;1.40;;;;;23.00;100389.00;;;;2060592;28;20215;-56
2021/09/16 02:30:10;;;;;;;1.80;1.20;;;;;22.80;100397.00;;;;2062038;28;20230;-56
2021/09/16 02:31:10;;;;;;;1.60;1.30;;;;;23.10;100380.00;;;;2061605;28;20753;-57
2021/09/16 02:32:10;;;;;;;1.53;1.13;;;;;23.10;100393.00;;;;2061813;28;20257;-56
2021/09/16 02:33:11;;;;;;;1.90;1.17;;;;;23.10;100391.00;;;;2060325;28;20206;-57
2021/09/16 02:34:11;;;;;;;3.10;1.20;;;;;23.10;100392.00;;;;2061910;28;20242;-57
2021/09/16 02:35:12;;;;;;;1.80;1.10;;;;;23.10;100404.00;;;;2062077;28;20289;-57
2021/09/16 02:36:12;;;;;;;1.10;0.90;;;;;23.10;100392.00;;;;2061474;28;20219;-57
2021/09/16 02:37:13;;;;;;;2.13;1.30;;;;;23.10;100403.00;;;;2062099;28;20222;-57
2021/09/16 02:38:13;;;;;;;2.30;1.40;;;;;23.10;100399.00;;;;2061621;28;20223;-57
2021/09/16 02:39:13;;;;;;;1.23;1.13;;;;;23.10;100400.00;;;;2060505;28;20214;-56
2021/09/16 02:40:14;;;;;;;1.20;1.10;;;;;23.10;100404.00;;;;2061309;28;20249;-56
2021/09/16 02:41:14;;;;;;;1.53;1.00;;;;;23.10;100401.00;;;;2061739;28;20222;-58
2021/09/16 02:42:14;;;;;;;1.63;1.33;;;;;23.10;100409.00;;;;2061653;28;20687;-59
2021/09/16 02:43:15;;;;;;;1.90;1.27;;;;;23.00;100402.00;;;;2061544;28;20671;-56
2021/09/16 02:44:15;;;;;;;1.63;1.20;;;;;23.00;100404.00;;;;2061741;28;20218;-58
2021/09/16 02:45:16;;;;;;;1.27;1.00;;;;;23.10;100406.00;;;;2061373;28;20230;-57
2021/09/16 02:46:16;;;;;;;1.63;1.40;;;;;23.00;100409.00;;;;2061849;28;20277;-53
2021/09/16 02:47:16;;;;;;;1.67;1.30;;;;;23.00;100401.00;;;;2061479;28;20206;-55
2021/09/16 02:48:17;;;;;;;1.83;1.10;;;;;23.10;100404.00;;;;2061710;28;20222;-57
2021/09/16 02:49:17;;;;;;;1.00;0.90;;;;;23.10;100401.00;;;;2060555;28;20218;-57
2021/09/16 02:50:17;;;;;;;1.83;1.00;;;;;23.10;100402.00;;;;2061929;28;20211;-56
2021/09/16 02:51:18;;;;;;;1.80;0.90;;;;;23.10;100404.00;;;;2062602;28;20206;-57
2021/09/16 02:52:18;;;;;;;1.27;1.00;;;;;23.00;100399.00;;;;2062709;28;20767;-56
2021/09/16 02:53:18;;;;;;;1.57;1.13;;;;;23.10;100411.00;;;;2061886;28;20246;-54
2021/09/16 02:54:19;;;;;;;1.43;1.00;;;;;23.00;100406.00;;;;2061374;28;20869;-55
2021/09/16 02:55:19;;;;;;;1.60;1.37;;;;;23.00;100404.00;;;;2062273;28;20218;-57
2021/09/16 02:56:20;;;;;;;1.77;1.00;;;;;23.00;100409.00;;;;2062242;28;20223;-53
2021/09/16 02:57:20;;;;;;;1.27;0.80;;;;;23.10;100402.00;;;;2061864;28;20754;-56
2021/09/16 02:58:20;;;;;;;1.07;0.90;;;;;23.00;100404.00;;;;2062283;28;20618;-54
2021/09/16 02:59:21;;;;;;;1.20;0.90;;;;;23.00;100406.00;;;;2059010;28;20242;-55
2021/09/16 03:00:21;;;;;;;1.67;1.00;;;;;23.00;100408.00;;;;2062074;28;20211;-57
2021/09/16 03:01:21;;;;;;;1.67;0.90;;;;;23.00;100411.00;;;;2062178;28;20218;-56
2021/09/16 03:02:22;;;;;;;2.23;0.80;;;;;23.00;100419.00;;;;2062179;28;20211;-57
2021/09/16 03:03:22;;;;;;;2.17;1.17;;;;;23.00;100419.00;;;;2062518;28;20219;-57
2021/09/16 03:04:22;;;;;;;1.30;0.87;;;;;23.00;100430.00;;;;2062332;28;20211;-57
2021/09/16 03:05:23;;;;;;;1.13;0.90;;;;;23.00;100418.00;;;;2062238;28;20633;-56
2021/09/16 03:06:23;;;;;;;1.47;1.00;;;;;23.00;100421.00;;;;2062469;28;20692;-55
2021/09/16 03:07:23;;;;;;;1.00;0.90;;;;;23.00;100428.00;;;;2062214;28;20215;-57
2021/09/16 03:08:24;;;;;;;1.30;0.83;;;;;23.00;100424.00;;;;2062356;28;20206;-58
2021/09/16 03:09:24;;;;;;;1.10;0.90;;;;;23.00;100422.00;;;;2061447;28;20726;-58
2021/09/16 03:10:24;;;;;;;1.40;1.03;;;;;23.00;100423.00;;;;2062087;28;20219;-57
2021/09/16 03:11:25;;;;;;;1.50;0.87;;;;;23.00;100432.00;;;;2062190;28;20261;-54
2021/09/16 03:12:25;;;;;;;1.27;0.90;;;;;23.00;100431.00;;;;2061885;28;20298;-55
2021/09/16 03:13:26;;;;;;;0.97;0.87;;;;;23.00;100428.00;;;;2061943;28;20222;-56
2021/09/16 03:14:26;;;;;;;1.93;1.30;;;;;23.00;100428.00;;;;2062397;28;20203;-56
2021/09/16 03:15:26;;;;;;;1.17;0.90;;;;;23.00;100435.00;;;;2062212;28;20221;-57
2021/09/16 03:16:27;;;;;;;1.80;0.80;;;;;23.00;100429.00;;;;2061753;28;20779;-57
2021/09/16 03:17:27;;;;;;;1.80;0.93;;;;;23.00;100422.00;;;;2062127;28;20577;-53
2021/09/16 03:18:27;;;;;;;1.60;1.03;;;;;22.90;100426.00;;;;2062409;28;20234;-54
2021/09/16 03:19:28;;;;;;;1.17;1.00;;;;;23.00;100424.00;;;;2061195;28;20210;-55
2021/09/16 03:20:28;;;;;;;1.10;0.90;;;;;23.00;100427.00;;;;2062454;28;20222;-55
2021/09/16 03:21:28;;;;;;;1.00;0.90;;;;;23.00;100427.00;;;;2067393;28;20225;-53
2021/09/16 03:22:29;;;;;;;1.80;0.93;;;;;23.00;100417.00;;;;2061990;28;20218;-54
2021/09/16 03:23:29;;;;;;;1.30;0.97;;;;;23.00;100426.00;;;;2063551;28;20215;-53
2021/09/16 03:24:30;;;;;;;2.90;0.90;;;;;23.00;100429.00;;;;2063699;28;20730;-55
2021/09/16 03:25:30;;;;;;;1.27;0.90;;;;;23.00;100432.00;;;;2063689;28;20222;-57
2021/09/16 03:26:30;;;;;;;1.37;0.93;;;;;23.00;100435.00;;;;2063399;28;20600;-56
2021/09/16 03:27:31;;;;;;;1.17;0.73;;;;;23.00;100428.00;;;;2063733;28;20242;-55
2021/09/16 03:28:32;;;;;;;1.10;0.90;;;;;23.00;100435.00;;;;2063657;28;20206;-56
2021/09/16 03:29:32;;;;;;;1.30;1.00;;;;;22.90;100428.00;;;;2062508;28;20235;-55
2021/09/16 03:30:33;;;;;;;1.37;0.90;;;;;22.90;100432.00;;;;2062933;28;20313;-55
2021/09/16 03:31:33;;;;;;;1.13;0.80;;;;;22.90;100426.00;;;;2062880;28;20281;-56
2021/09/16 03:32:33;;;;;;;1.17;0.77;;;;;22.90;100428.00;;;;2063547;28;20763;-53
2021/09/16 03:33:34;;;;;;;1.23;0.70;;;;;22.90;100415.00;;;;2063765;28;20707;-54
2021/09/16 03:34:34;;;;;;;1.20;0.80;;;;;22.90;100422.00;;;;2063313;28;20571;-57
2021/09/16 03:35:35;;;;;;;0.83;0.80;;;;;22.90;100420.00;;;;2063712;28;20583;-57
2021/09/16 03:36:35;;;;;;;1.63;1.13;;;;;22.90;100424.00;;;;2063773;28;20234;-56
2021/09/16 03:37:35;;;;;;;1.20;0.90;;;;;22.90;100417.00;;;;2063425;28;20726;-57
2021/09/16 03:38:36;;;;;;;2.20;1.00;;;;;23.00;100417.00;;;;2063747;28;20214;-53
2021/09/16 03:39:36;;;;;;;1.20;1.00;;;;;23.00;100419.00;;;;2061831;28;20680;-55
2021/09/16 03:40:36;;;;;;;1.30;0.73;;;;;23.00;100425.00;;;;2062583;28;20217;-57
2021/09/16 03:41:37;;;;;;;0.80;0.70;;;;;23.00;100423.00;;;;2063138;28;20218;-57
2021/09/16 03:42:37;;;;;;;1.30;1.00;;;;;23.00;100422.00;;;;2062463;28;20831;-57
2021/09/16 03:43:38;;;;;;;1.57;0.97;;;;;23.00;100417.00;;;;2063183;28;20630;-57
2021/09/16 03:44:38;;;;;;;0.80;0.67;;;;;22.90;100417.00;;;;2063356;28;20210;-55
2021/09/16 03:45:38;;;;;;;2.70;0.80;;;;;22.90;100417.00;;;;2063491;28;20211;-54
2021/09/16 03:46:39;;;;;;;0.93;0.60;;;;;22.90;100424.00;;;;2063702;28;20222;-53
2021/09/16 03:47:39;;;;;;;1.80;1.10;;;;;22.90;100418.00;;;;2063413;28;20215;-53
2021/09/16 03:48:39;;;;;;;1.67;1.00;;;;;22.90;100419.00;;;;2063387;28;20214;-53
2021/09/16 03:49:40;;;;;;;1.37;0.73;;;;;22.90;100428.00;;;;2062427;28;20317;-54
2021/09/16 03:50:40;;;;;;;2.10;1.10;;;;;22.90;100420.00;;;;2061246;28;20211;-54
2021/09/16 03:51:40;;;;;;;1.33;0.70;;;;;22.90;100419.00;;;;2068928;28;20572;-55
2021/09/16 03:52:41;;;;;;;1.10;0.80;;;;;22.90;100407.00;;;;2063561;28;20219;-55
2021/09/16 03:53:41;;;;;;;1.10;0.87;;;;;22.90;100422.00;;;;2061974;28;20301;-55
2021/09/16 03:54:41;;;;;;;3.33;0.90;;;;;23.00;100417.00;;;;2062334;28;20215;-56
2021/09/16 03:55:42;;;;;;;2.37;0.90;;;;;22.90;100416.00;;;;2063438;28;20297;-57
2021/09/16 03:56:42;;;;;;;1.47;0.90;;;;;22.90;100409.00;;;;2063358;28;20273;-55
2021/09/16 03:57:43;;;;;;;1.67;0.70;;;;;22.90;100410.00;;;;2063375;28;20210;-56
2021/09/16 03:58:43;;;;;;;2.00;0.93;;;;;22.90;100408.00;;;;2062557;28;20215;-54
2021/09/16 03:59:44;;;;;;;1.43;0.90;;;;;22.90;100409.00;;;;2062910;28;20230;-57
2021/09/16 04:00:44;;;;;;;1.50;1.00;;;;;22.90;100410.00;;;;2063570;28;20215;-56
2021/09/16 04:01:44;;;;;;;1.53;0.80;;;;;22.90;100412.00;;;;2063399;28;20277;-54
2021/09/16 04:02:45;;;;;;;1.77;0.83;;;;;22.90;100417.00;;;;2063637;28;20916;-55
2021/09/16 04:03:45;;;;;;;1.40;0.80;;;;;22.90;100418.00;;;;2062824;28;20249;-57
2021/09/16 04:04:45;;;;;;;1.80;1.03;;;;;22.90;100421.00;;;;2062504;28;21348;-57
2021/09/16 04:05:46;;;;;;;1.70;1.00;;;;;22.90;100417.00;;;;2063467;28;20229;-57
2021/09/16 04:06:46;;;;;;;1.23;1.00;;;;;22.90;100412.00;;;;2063581;28;21173;-57
2021/09/16 04:07:47;;;;;;;2.07;1.13;;;;;22.90;100424.00;;;;2063421;28;20253;-54
2021/09/16 04:08:47;;;;;;;1.70;0.90;;;;;22.90;100418.00;;;;2062589;28;20242;-53
2021/09/16 04:09:47;;;;;;;1.70;0.80;;;;;22.90;100410.00;;;;2062919;28;20238;-53
2021/09/16 04:10:48;;;;;;;2.20;1.10;;;;;22.90;100421.00;;;;2063396;28;20222;-56
2021/09/16 04:11:48;;;;;;;1.73;0.80;;;;;22.90;100415.00;;;;2063329;28;21033;-57
2021/09/16 04:12:48;;;;;;;1.77;1.00;;;;;22.90;100414.00;;;;2063560;28;20238;-56
2021/09/16 04:13:49;;;;;;;1.50;0.90;;;;;22.90;100430.00;;;;2062729;28;20227;-54
2021/09/16 04:14:49;;;;;;;1.00;0.80;;;;;22.90;100422.00;;;;2063473;28;20218;-53
2021/09/16 04:15:49;;;;;;;2.10;1.10;;;;;22.90;100416.00;;;;2063431;28;20731;-54
2021/09/16 04:16:50;;;;;;;1.10;0.80;;;;;22.90;100415.00;;;;2063532;28;20230;-56
2021/09/16 04:17:50;;;;;;;1.80;0.83;;;;;22.90;100420.00;;;;2063518;28;20261;-55
2021/09/16 04:18:50;;;;;;;1.40;1.10;;;;;22.90;100415.00;;;;2062045;28;20230;-57
2021/09/16 04:19:51;;;;;;;1.33;0.90;;;;;22.90;100415.00;;;;2063210;28;20699;-57
2021/09/16 04:20:51;;;;;;;1.47;0.90;;;;;22.90;100424.00;;;;2067505;28;20217;-57
2021/09/16 04:21:51;;;;;;;1.77;1.23;;;;;22.90;100421.00;;;;2067831;28;20278;-56
2021/09/16 04:22:52;;;;;;;1.53;1.07;;;;;22.90;100422.00;;;;2063258;28;20219;-54
2021/09/16 04:23:52;;;;;;;1.27;0.93;;;;;22.90;100422.00;;;;2063120;28;20211;-55
2021/09/16 04:24:52;;;;;;;2.03;1.23;;;;;22.90;100423.00;;;;2063389;28;20214;-56
2021/09/16 04:25:53;;;;;;;2.00;0.97;;;;;22.90;100423.00;;;;2063336;28;20583;-57
2021/09/16 04:26:53;;;;;;;1.73;1.20;;;;;22.90;100417.00;;;;2062852;28;20238;-56
2021/09/16 04:27:53;;;;;;;1.37;1.20;;;;;22.90;100423.00;;;;2063405;28;20211;-54
2021/09/16 04:28:54;;;;;;;1.37;0.90;;;;;22.90;100422.00;;;;2061976;28;20679;-55
2021/09/16 04:29:54;;;;;;;2.00;1.20;;;;;22.90;100428.00;;;;2063274;28;20555;-57
2021/09/16 04:30:54;;;;;;;1.40;1.00;;;;;22.90;100418.00;;;;2063328;28;20215;-56
2021/09/16 04:31:56;;;;;;;1.83;1.40;;;;;22.90;100418.00;;;;2062974;28;20214;-56
2021/09/16 04:32:56;;;;;;;1.85;1.00;;;;;22.90;100418.00;;;;2063145;28;20215;-56
2021/09/16 04:33:56;;;;;;;2.07;1.40;;;;;22.90;100415.00;;;;2063247;28;20223;-57
2021/09/16 04:34:57;;;;;;;2.20;1.20;;;;;22.80;100419.00;;;;2063193;28;20218;-54
2021/09/16 04:35:57;;;;;;;1.67;1.10;;;;;22.90;100420.00;;;;2063249;28;20215;-57
2021/09/16 04:36:57;;;;;;;2.50;1.27;;;;;22.80;100420.00;;;;2063275;28;20706;-58
2021/09/16 04:37:58;;;;;;;3.23;1.37;;;;;22.90;100418.00;;;;2063042;28;20215;-56
2021/09/16 04:38:58;;;;;;;1.33;1.10;;;;;22.90;100423.00;;;;2061954;28;20223;-53
2021/09/16 04:39:59;;;;;;;1.33;1.00;;;;;22.90;100416.00;;;;2062827;28;21013;-53
2021/09/16 04:40:59;;;;;;;1.97;1.37;;;;;22.80;100422.00;;;;2069254;28;20272;-56
2021/09/16 04:41:59;;;;;;;2.00;1.27;;;;;22.80;100425.00;;;;2071096;28;20390;-56
2021/09/16 04:43:00;;;;;;;1.93;1.17;;;;;22.80;100426.00;;;;2070873;28;20695;-53
2021/09/16 04:44:00;;;;;;;1.70;1.20;;;;;22.80;100423.00;;;;2070800;28;20254;-53
2021/09/16 04:45:01;;;;;;;2.17;1.50;;;;;22.90;100423.00;;;;2071055;28;20214;-55
2021/09/16 04:46:01;;;;;;;2.00;1.30;;;;;22.90;100428.00;;;;2071290;28;20721;-56
2021/09/16 04:47:01;;;;;;;1.70;1.27;;;;;22.90;100427.00;;;;2071099;28;20286;-57
2021/09/16 04:48:02;;;;;;;1.50;1.13;;;;;22.90;100426.00;;;;2071096;28;20245;-56
2021/09/16 04:49:02;;;;;;;1.40;1.23;;;;;22.90;100423.00;;;;2069043;28;20225;-53
2021/09/16 04:50:03;;;;;;;3.40;1.90;;;;;22.90;100422.00;;;;2070858;28;20694;-55
2021/09/16 04:51:03;;;;;;;3.37;1.53;;;;;22.90;100419.00;;;;2070586;28;20578;-57
2021/09/16 04:52:04;;;;;;;2.47;1.60;;;;;22.90;100424.00;;;;2065809;28;20337;-61
2021/09/16 04:53:04;;;;;;;6.37;2.07;;;;;22.90;100424.00;;;;2066323;28;20656;-58
2021/09/16 04:54:06;;;;;;;2.07;1.33;;;;;23.00;100421.00;;;;2065649;28;20215;-54
2021/09/16 04:55:07;;;;;;;3.85;1.63;;;;;23.00;100429.00;;;;2063084;28;20207;-54
2021/09/16 04:56:07;;;;;;;2.73;1.10;;;;;23.00;100431.00;;;;2062976;28;20227;-56
2021/09/16 04:57:08;;;;;;;3.90;1.10;;;;;23.10;100431.00;;;;2063214;28;20450;-56
2021/09/16 04:58:08;;;;;;;2.40;1.30;;;;;23.10;100430.00;;;;2062842;28;20706;-57
2021/09/16 04:59:08;;;;;;;3.60;1.30;;;;;23.00;100437.00;;;;2061050;28;20222;-54